createdAt,value
2017-10-07T00:03:16.712Z,0
2017-10-07T00:13:16.630Z,0
2017-10-07T00:23:16.668Z,0
2017-10-07T00:33:16.685Z,0
2017-10-07T00:43:16.782Z,0
2017-10-07T00:53:16.799Z,0
2017-10-07T01:03:17.459Z,0
2017-10-07T01:13:16.689Z,0
2017-10-07T01:23:16.701Z,0
2017-10-07T01:33:16.734Z,0
2017-10-07T01:43:16.848Z,0
2017-10-07T01:53:16.765Z,0
2017-10-07T02:03:16.845Z,0
2017-10-07T02:13:16.836Z,0
2017-10-07T02:23:16.773Z,0
2017-10-07T02:33:16.763Z,0
2017-10-07T02:43:16.836Z,0
2017-10-07T02:53:16.781Z,0
2017-10-07T03:03:16.812Z,0
2017-10-07T03:13:16.831Z,0
2017-10-07T03:23:16.826Z,0
2017-10-07T03:33:16.867Z,0
2017-10-07T03:43:16.872Z,0
2017-10-07T03:53:16.857Z,0
2017-10-07T04:03:16.844Z,0
2017-10-07T04:13:16.851Z,0
2017-10-07T04:23:16.887Z,0
2017-10-07T04:33:17.008Z,0
2017-10-07T04:43:16.867Z,0
2017-10-07T04:53:16.884Z,0
2017-10-07T05:03:17.012Z,0
2017-10-07T05:13:16.935Z,0
2017-10-07T05:23:16.970Z,0
2017-10-07T05:33:16.935Z,0
2017-10-07T05:43:16.928Z,0
2017-10-07T05:53:16.983Z,5
2017-10-07T06:03:16.931Z,10
2017-10-07T06:13:17.002Z,15
2017-10-07T06:23:16.944Z,15
2017-10-07T06:33:16.896Z,30
2017-10-07T06:43:16.896Z,50
2017-10-07T06:53:16.915Z,45
2017-10-07T07:03:16.956Z,40
2017-10-07T07:13:16.955Z,45
2017-10-07T07:23:16.896Z,45
2017-10-07T07:33:16.998Z,45
2017-10-07T07:43:17.114Z,75
2017-10-07T07:53:16.979Z,100
2017-10-07T08:03:16.893Z,115
2017-10-07T08:13:16.912Z,155
2017-10-07T08:23:17.008Z,135
2017-10-07T08:33:16.979Z,90
2017-10-07T08:43:16.889Z,100
2017-10-07T08:53:16.948Z,110
2017-10-07T09:03:16.932Z,90
2017-10-07T09:13:16.970Z,95
2017-10-07T09:23:16.941Z,105
2017-10-07T09:33:17.034Z,95
2017-10-07T09:43:17.056Z,85
2017-10-07T09:53:17.800Z,100
2017-10-07T10:03:17.063Z,55
2017-10-07T10:13:17.021Z,60
2017-10-07T10:23:16.935Z,65
2017-10-07T10:33:16.931Z,60
2017-10-07T10:43:16.896Z,60
2017-10-07T10:53:16.977Z,75
2017-10-07T11:03:17.033Z,65
2017-10-07T11:13:16.947Z,35
2017-10-07T11:23:17.027Z,45
2017-10-07T11:33:16.868Z,50
2017-10-07T11:43:16.877Z,65
2017-10-07T11:53:17.259Z,50
2017-10-07T12:03:17.096Z,45
2017-10-07T12:13:17.531Z,50
2017-10-07T12:23:17.666Z,55
2017-10-07T12:33:16.934Z,50
2017-10-07T12:43:16.871Z,45
2017-10-07T12:53:16.960Z,50
2017-10-07T13:03:16.919Z,55
2017-10-07T13:13:16.947Z,50
2017-10-07T13:23:19.546Z,50
2017-10-07T13:33:16.931Z,55
2017-10-07T13:43:16.983Z,75
2017-10-07T13:53:17.014Z,50
2017-10-07T14:03:17.019Z,65
2017-10-07T14:13:17.071Z,50
2017-10-07T14:23:17.012Z,35
2017-10-07T14:33:16.998Z,30
2017-10-07T14:43:17.041Z,20
2017-10-07T14:53:17.093Z,15
2017-10-07T15:03:17.098Z,10
2017-10-07T15:13:17.017Z,15
2017-10-07T15:23:17.108Z,10
2017-10-07T15:33:17.134Z,5
2017-10-07T15:43:17.072Z,5
2017-10-07T15:53:17.126Z,5
2017-10-07T16:03:17.330Z,5
2017-10-07T16:13:17.085Z,0
2017-10-07T16:23:17.106Z,0
2017-10-07T16:33:17.802Z,0
2017-10-07T16:43:17.129Z,0
2017-10-07T16:53:17.146Z,0
2017-10-07T17:03:17.182Z,0
2017-10-07T17:13:17.137Z,0
2017-10-07T17:23:17.175Z,0
2017-10-07T17:33:17.219Z,0
2017-10-07T17:43:18.939Z,0
2017-10-07T17:53:17.188Z,0
2017-10-07T18:03:17.288Z,0
2017-10-07T18:13:17.263Z,0
2017-10-07T18:23:17.231Z,0
2017-10-07T18:33:17.282Z,0
2017-10-07T18:43:17.301Z,0
2017-10-07T18:53:17.363Z,0
2017-10-07T19:03:17.333Z,0
2017-10-07T19:13:18.228Z,0
2017-10-07T19:23:18.789Z,0
2017-10-07T19:33:18.803Z,0
2017-10-07T19:43:17.811Z,0
2017-10-07T19:53:18.226Z,0
2017-10-07T20:03:17.653Z,0
2017-10-07T20:13:17.784Z,0
2017-10-07T20:23:17.561Z,0
2017-10-07T20:33:17.793Z,0
2017-10-07T20:43:17.405Z,0
2017-10-07T20:53:17.429Z,0
2017-10-07T21:03:18.078Z,0
2017-10-07T21:13:18.302Z,0
2017-10-07T21:23:17.624Z,0
2017-10-07T21:33:19.443Z,0
2017-10-07T21:43:18.028Z,0
2017-10-07T21:53:47.572Z,0
2017-10-07T22:03:31.197Z,0
2017-10-07T22:13:17.614Z,0
2017-10-07T22:23:17.471Z,0
2017-10-07T22:33:17.486Z,0
2017-10-07T22:43:17.471Z,0
2017-10-07T22:53:17.505Z,0
2017-10-07T23:03:18.144Z,0
2017-10-07T23:13:17.497Z,0
2017-10-07T23:23:17.573Z,0
2017-10-07T23:33:17.633Z,0
2017-10-07T23:43:17.548Z,0
2017-10-07T23:53:18.181Z,0
